Time;durP1;ratioP1;P1;durP2;ratioP2;P2;SDS_P1;SDS_P2;PMS_P1;PMS_P2;Temp;Humidity;BMP_temperature;BMP_pressure;BME280_temperature;BME280_humidity;BME280_pressure;Samples;Min_cycle;Max_cycle;Signal;HPM_P1;HPM_P2
2023/08/13 00:00:31;;;;;;;4.07;1.80;;;;;;;;;;4989114;28;20641;-79
2023/08/13 00:02:57;;;;;;;3.90;1.40;;;;;;;;;;5026858;28;20282;-79
2023/08/13 00:05:22;;;;;;;3.33;1.40;;;;;;;;;;5009149;28;20291;-79
2023/08/13 00:07:47;;;;;;;3.70;1.45;;;;;;;;;;5008964;28;20280;-79
2023/08/13 00:10:12;;;;;;;3.80;1.50;;;;;;;;;;5023113;28;20029;-80
2023/08/13 00:12:38;;;;;;;5.13;1.57;;;;;;;;;;5027032;28;20287;-80
2023/08/13 00:15:04;;;;;;;4.82;1.42;;;;;;;;;;5017536;28;20307;-80
2023/08/13 00:17:29;;;;;;;5.43;1.50;;;;;;;;;;5006068;28;20038;-80
2023/08/13 00:19:54;;;;;;;4.30;1.90;;;;;;;;;;5026385;28;20181;-79
2023/08/13 00:22:21;;;;;;;3.23;1.80;;;;;;;;;;5026955;28;20176;-80
2023/08/13 00:24:46;;;;;;;4.45;1.48;;;;;;;;;;5023571;28;20276;-79
2023/08/13 00:27:11;;;;;;;5.00;1.40;;;;;;;;;;5026901;28;20048;-79
2023/08/13 00:29:39;;;;;;;5.75;1.60;;;;;;;;;;5005476;28;20289;-80
2023/08/13 00:32:04;;;;;;;3.88;1.58;;;;;;;;;;5026555;28;20103;-79
2023/08/13 00:34:30;;;;;;;4.57;1.75;;;;;;;;;;5006315;28;20436;-79
2023/08/13 00:36:55;;;;;;;3.72;1.45;;;;;;;;;;4990851;28;20033;-80
2023/08/13 00:39:20;;;;;;;4.68;1.73;;;;;;;;;;5013232;28;20038;-80
2023/08/13 00:41:45;;;;;;;3.35;1.38;;;;;;;;;;5007859;28;20033;-80
2023/08/13 00:44:11;;;;;;;6.13;1.53;;;;;;;;;;5006005;28;20030;-80
2023/08/13 00:46:37;;;;;;;5.50;1.75;;;;;;;;;;5008307;28;20288;-80
2023/08/13 00:49:02;;;;;;;3.03;1.67;;;;;;;;;;5023578;28;20068;-80
2023/08/13 00:51:28;;;;;;;4.50;1.70;;;;;;;;;;5025605;28;20033;-79
2023/08/13 00:53:54;;;;;;;5.55;1.90;;;;;;;;;;5023746;28;20420;-79
2023/08/13 00:56:21;;;;;;;3.65;1.40;;;;;;;;;;5029923;28;20029;-80
2023/08/13 00:58:46;;;;;;;6.93;1.52;;;;;;;;;;5006559;28;20025;-79
2023/08/13 01:01:12;;;;;;;3.58;1.80;;;;;;;;;;5007004;28;20457;-80
2023/08/13 01:03:38;;;;;;;5.47;1.80;;;;;;;;;;5024772;28;20415;-80
2023/08/13 01:06:13;;;;;;;3.92;1.50;;;;;;;;;;5006888;28;20080;-80
2023/08/13 01:08:55;;;;;;;4.55;1.63;;;;;;;;;;5005013;28;20124;-79
2023/08/13 01:11:32;;;;;;;5.05;1.50;;;;;;;;;;5013273;28;20029;-80
2023/08/13 01:14:03;;;;;;;3.70;1.60;;;;;;;;;;5006979;28;20041;-80
2023/08/13 01:16:28;;;;;;;4.75;1.80;;;;;;;;;;5025723;28;20025;-80
2023/08/13 01:18:53;;;;;;;4.05;1.60;;;;;;;;;;5024987;28;20067;-80
2023/08/13 01:21:19;;;;;;;4.85;1.52;;;;;;;;;;5005646;28;20088;-79
2023/08/13 01:23:44;;;;;;;3.63;1.67;;;;;;;;;;5025504;28;20029;-80
2023/08/13 01:26:14;;;;;;;85.53;7.28;;;;;;;;;;5005548;28;20316;-80
2023/08/13 01:28:43;;;;;;;4.00;2.03;;;;;;;;;;4998415;28;20033;-78
2023/08/13 01:31:11;;;;;;;5.50;1.73;;;;;;;;;;5006776;28;20111;-80
2023/08/13 01:33:39;;;;;;;4.47;1.73;;;;;;;;;;5006070;28;20029;-80
2023/08/13 01:36:05;;;;;;;9.10;2.00;;;;;;;;;;5025015;28;20030;-80
2023/08/13 01:38:30;;;;;;;5.22;1.95;;;;;;;;;;5015559;28;20060;-80
2023/08/13 01:41:03;;;;;;;5.43;1.55;;;;;;;;;;5005119;28;20029;-80
2023/08/13 01:43:28;;;;;;;2.88;1.50;;;;;;;;;;5001061;28;20037;-80
2023/08/13 01:45:53;;;;;;;4.95;1.80;;;;;;;;;;5026144;28;20022;-80
2023/08/13 01:48:18;;;;;;;6.28;1.90;;;;;;;;;;5025499;28;20488;-80
2023/08/13 01:50:44;;;;;;;4.80;1.75;;;;;;;;;;5022373;28;20418;-80
2023/08/13 01:53:09;;;;;;;3.00;1.77;;;;;;;;;;5024986;28;20812;-80
2023/08/13 01:55:34;;;;;;;3.70;1.80;;;;;;;;;;5008508;28;20025;-80
2023/08/13 01:58:00;;;;;;;2.45;1.30;;;;;;;;;;5013395;28;20034;-80
2023/08/13 02:00:25;;;;;;;3.40;1.45;;;;;;;;;;5007029;28;20112;-79
2023/08/13 02:02:50;;;;;;;7.65;2.00;;;;;;;;;;5025623;28;20025;-80
2023/08/13 02:05:15;;;;;;;4.30;1.92;;;;;;;;;;5025245;28;20481;-79
2023/08/13 02:07:41;;;;;;;4.43;1.67;;;;;;;;;;5011027;28;20029;-80
2023/08/13 02:10:06;;;;;;;4.32;1.95;;;;;;;;;;5022353;28;20030;-79
2023/08/13 02:12:31;;;;;;;6.90;1.80;;;;;;;;;;5024808;28;20136;-79
2023/08/13 02:14:57;;;;;;;5.28;2.10;;;;;;;;;;5005597;28;20026;-80
2023/08/13 02:17:22;;;;;;;3.20;1.75;;;;;;;;;;5026611;28;20064;-79
2023/08/13 02:19:47;;;;;;;6.22;2.05;;;;;;;;;;5024621;28;20095;-79
2023/08/13 02:22:12;;;;;;;5.65;1.67;;;;;;;;;;5004906;28;20040;-79
2023/08/13 02:24:37;;;;;;;4.18;1.50;;;;;;;;;;5024402;28;20488;-79
2023/08/13 02:27:03;;;;;;;4.05;1.90;;;;;;;;;;5005640;28;20038;-79
2023/08/13 02:29:30;;;;;;;3.65;2.00;;;;;;;;;;5009748;28;20523;-78
2023/08/13 02:31:55;;;;;;;2.97;1.75;;;;;;;;;;5009898;28;20026;-79
2023/08/13 02:34:22;;;;;;;6.43;1.90;;;;;;;;;;5008991;28;20021;-79
2023/08/13 02:36:47;;;;;;;4.38;2.03;;;;;;;;;;5014148;28;20037;-79
2023/08/13 02:39:12;;;;;;;3.63;2.00;;;;;;;;;;5008791;28;20034;-79
2023/08/13 02:41:38;;;;;;;5.30;1.83;;;;;;;;;;5009680;28;20281;-78
2023/08/13 02:44:03;;;;;;;4.70;1.80;;;;;;;;;;5026717;28;20052;-79
2023/08/13 02:46:28;;;;;;;4.28;1.92;;;;;;;;;;5009643;28;20670;-79
2023/08/13 02:48:54;;;;;;;3.55;1.83;;;;;;;;;;5008161;28;20057;-79
2023/08/13 02:51:20;;;;;;;3.25;2.20;;;;;;;;;;5027034;28;20018;-79
2023/08/13 02:53:45;;;;;;;5.53;2.40;;;;;;;;;;5012213;28;20487;-79
2023/08/13 02:56:10;;;;;;;4.10;1.77;;;;;;;;;;5027189;28;20026;-79
2023/08/13 02:58:35;;;;;;;3.13;1.75;;;;;;;;;;5008492;28;20036;-79
2023/08/13 03:01:01;;;;;;;3.40;1.85;;;;;;;;;;5008981;28;20029;-79
2023/08/13 03:03:26;;;;;;;3.33;1.90;;;;;;;;;;5008204;28;20037;-78
2023/08/13 03:05:51;;;;;;;3.45;1.90;;;;;;;;;;5027391;28;20029;-79
2023/08/13 03:08:17;;;;;;;5.70;2.85;;;;;;;;;;5009026;28;20073;-78
2023/08/13 03:10:42;;;;;;;5.28;2.17;;;;;;;;;;5023860;28;20095;-79
2023/08/13 03:13:07;;;;;;;5.40;2.60;;;;;;;;;;5011556;28;20116;-79
2023/08/13 03:15:32;;;;;;;5.95;2.75;;;;;;;;;;5009832;28;20083;-79
2023/08/13 03:17:58;;;;;;;4.43;1.80;;;;;;;;;;5007100;28;20076;-79
2023/08/13 03:20:26;;;;;;;5.75;2.00;;;;;;;;;;5009562;28;20033;-79
2023/08/13 03:22:51;;;;;;;2.90;1.50;;;;;;;;;;5006425;28;20117;-79
2023/08/13 03:25:17;;;;;;;2.35;1.30;;;;;;;;;;5028166;28;20043;-79
2023/08/13 03:27:42;;;;;;;2.65;1.25;;;;;;;;;;5028890;28;20029;-79
2023/08/13 03:30:12;;;;;;;2.42;1.20;;;;;;;;;;5006151;28;20087;-79
2023/08/13 03:32:38;;;;;;;3.90;2.30;;;;;;;;;;5031402;28;20025;-79
2023/08/13 03:35:03;;;;;;;4.13;1.60;;;;;;;;;;5030119;28;20030;-79
2023/08/13 03:37:28;;;;;;;4.28;1.60;;;;;;;;;;5005866;28;20025;-79
2023/08/13 03:39:53;;;;;;;3.92;1.30;;;;;;;;;;5008939;28;20030;-79
2023/08/13 03:42:19;;;;;;;3.42;1.83;;;;;;;;;;5010329;28;20037;-80
2023/08/13 03:44:44;;;;;;;4.20;2.00;;;;;;;;;;5027442;28;20029;-79
2023/08/13 03:47:09;;;;;;;4.72;2.05;;;;;;;;;;5008884;28;20128;-79
2023/08/13 03:49:35;;;;;;;6.45;2.20;;;;;;;;;;5006667;28;20088;-79
2023/08/13 03:52:00;;;;;;;3.75;2.33;;;;;;;;;;5009038;28;20384;-79
2023/08/13 03:54:26;;;;;;;4.70;2.38;;;;;;;;;;5009914;28;20567;-80
2023/08/13 03:56:51;;;;;;;4.37;2.07;;;;;;;;;;5025287;28;20069;-79
2023/08/13 03:59:17;;;;;;;4.45;2.60;;;;;;;;;;5010142;28;20291;-79
2023/08/13 04:01:43;;;;;;;5.80;2.35;;;;;;;;;;5008410;28;20089;-79
2023/08/13 04:04:08;;;;;;;5.65;3.15;;;;;;;;;;5014190;28;20549;-79
2023/08/13 04:06:33;;;;;;;3.90;2.05;;;;;;;;;;5024336;28;20041;-78
2023/08/13 04:08:58;;;;;;;3.25;1.95;;;;;;;;;;5021688;28;20152;-80
2023/08/13 04:11:24;;;;;;;5.00;2.22;;;;;;;;;;5012710;28;20029;-79
2023/08/13 04:13:49;;;;;;;4.60;2.22;;;;;;;;;;5008276;28;20033;-80
2023/08/13 04:16:15;;;;;;;4.55;2.00;;;;;;;;;;5008616;28;20046;-79
2023/08/13 04:18:44;;;;;;;4.43;1.92;;;;;;;;;;4992007;28;20128;-80
2023/08/13 04:21:09;;;;;;;4.25;3.00;;;;;;;;;;5009021;28;20508;-79
2023/08/13 04:23:34;;;;;;;5.93;2.83;;;;;;;;;;5025157;28;20036;-80
2023/08/13 04:25:59;;;;;;;4.75;2.17;;;;;;;;;;5011103;28;20041;-79
2023/08/13 04:28:25;;;;;;;4.63;2.35;;;;;;;;;;5007414;28;20049;-79
2023/08/13 04:30:51;;;;;;;3.22;1.90;;;;;;;;;;5008572;28;20029;-80
2023/08/13 04:33:16;;;;;;;4.20;2.20;;;;;;;;;;4991166;28;20018;-80
2023/08/13 04:35:41;;;;;;;3.28;1.92;;;;;;;;;;5009624;28;20097;-80
2023/08/13 04:38:07;;;;;;;5.90;2.40;;;;;;;;;;5020858;28;20113;-80
2023/08/13 04:40:37;;;;;;;4.40;2.10;;;;;;;;;;5011976;28;20487;-80
2023/08/13 04:43:02;;;;;;;4.82;2.65;;;;;;;;;;5009914;28;20029;-80
2023/08/13 04:45:28;;;;;;;7.30;2.47;;;;;;;;;;5006483;28;20030;-80
2023/08/13 04:47:54;;;;;;;4.40;2.22;;;;;;;;;;5009698;28;20025;-80
2023/08/13 04:50:19;;;;;;;3.67;2.08;;;;;;;;;;5023601;28;20026;-80
2023/08/13 04:52:44;;;;;;;3.60;2.10;;;;;;;;;;5012589;28;20455;-79
2023/08/13 04:55:12;;;;;;;5.63;2.90;;;;;;;;;;5016905;28;20059;-80
2023/08/13 04:57:38;;;;;;;5.57;2.47;;;;;;;;;;5007181;28;20116;-79
2023/08/13 05:00:04;;;;;;;5.32;2.50;;;;;;;;;;4992297;28;20032;-79
2023/08/13 05:02:36;;;;;;;5.97;3.17;;;;;;;;;;5007662;28;20125;-80
2023/08/13 05:05:03;;;;;;;4.28;2.17;;;;;;;;;;4998860;28;20080;-79
2023/08/13 05:07:28;;;;;;;6.80;2.30;;;;;;;;;;5023764;28;20493;-80
2023/08/13 05:09:53;;;;;;;4.05;2.63;;;;;;;;;;5006386;28;20564;-80
2023/08/13 05:12:19;;;;;;;5.00;2.40;;;;;;;;;;5016912;28;20065;-79
2023/08/13 05:14:45;;;;;;;3.97;2.17;;;;;;;;;;4999354;28;20025;-80
2023/08/13 05:17:19;;;;;;;4.37;2.57;;;;;;;;;;5026614;28;20041;-80
2023/08/13 05:19:46;;;;;;;3.67;2.05;;;;;;;;;;5005574;28;20301;-79
2023/08/13 05:22:11;;;;;;;5.53;2.75;;;;;;;;;;5000863;28;20029;-80
2023/08/13 05:24:37;;;;;;;7.30;2.60;;;;;;;;;;5006796;28;20033;-79
2023/08/13 05:27:03;;;;;;;5.95;2.80;;;;;;;;;;5012850;28;20053;-80
2023/08/13 05:29:28;;;;;;;6.45;3.10;;;;;;;;;;5023963;28;20033;-80
2023/08/13 05:31:54;;;;;;;5.30;2.42;;;;;;;;;;5010368;28;20025;-80
2023/08/13 05:34:19;;;;;;;4.47;2.58;;;;;;;;;;5008612;28;20243;-80
2023/08/13 05:36:44;;;;;;;6.60;2.40;;;;;;;;;;5013055;28;20045;-80
2023/08/13 05:39:10;;;;;;;4.82;2.30;;;;;;;;;;5019099;28;20056;-80
2023/08/13 05:41:36;;;;;;;5.18;2.70;;;;;;;;;;5001603;28;20049;-80
2023/08/13 05:44:02;;;;;;;6.20;2.70;;;;;;;;;;5009400;28;20033;-80
2023/08/13 05:46:28;;;;;;;3.70;2.38;;;;;;;;;;5008845;28;20022;-80
2023/08/13 05:48:54;;;;;;;5.53;2.30;;;;;;;;;;5015998;28;20045;-80
2023/08/13 05:51:19;;;;;;;6.00;2.88;;;;;;;;;;5010994;28;20041;-80
2023/08/13 05:53:44;;;;;;;5.13;2.78;;;;;;;;;;5027301;28;20065;-80
2023/08/13 05:56:10;;;;;;;4.47;2.47;;;;;;;;;;5027027;28;20038;-80
2023/08/13 05:58:35;;;;;;;5.07;2.30;;;;;;;;;;5030322;28;20283;-80
2023/08/13 06:01:00;;;;;;;4.47;2.80;;;;;;;;;;5011340;28;20751;-80
2023/08/13 06:03:25;;;;;;;4.87;2.37;;;;;;;;;;5010557;28;20276;-80
2023/08/13 06:05:51;;;;;;;4.50;2.92;;;;;;;;;;5031524;28;20272;-79
2023/08/13 06:08:16;;;;;;;4.53;2.70;;;;;;;;;;5016687;28;20037;-79
2023/08/13 06:10:41;;;;;;;4.53;2.70;;;;;;;;;;5031989;28;20029;-80
2023/08/13 06:13:06;;;;;;;5.97;2.70;;;;;;;;;;5032681;28;20108;-80
2023/08/13 06:15:31;;;;;;;5.20;2.53;;;;;;;;;;5033147;28;20080;-79
2023/08/13 06:17:57;;;;;;;6.33;2.43;;;;;;;;;;5033752;28;20264;-80
2023/08/13 06:20:23;;;;;;;5.60;3.08;;;;;;;;;;5017343;28;20283;-80
2023/08/13 06:22:49;;;;;;;5.38;2.53;;;;;;;;;;5016095;28;20037;-80
2023/08/13 06:25:14;;;;;;;4.18;2.72;;;;;;;;;;5016231;28;20163;-79
2023/08/13 06:27:39;;;;;;;4.80;3.10;;;;;;;;;;4999181;28;20115;-80
2023/08/13 06:30:05;;;;;;;4.90;2.97;;;;;;;;;;5037413;28;20029;-80
2023/08/13 06:32:30;;;;;;;4.00;2.92;;;;;;;;;;5014602;28;20323;-79
2023/08/13 06:34:55;;;;;;;7.43;2.80;;;;;;;;;;5035506;28;20029;-80
2023/08/13 06:37:20;;;;;;;3.50;2.50;;;;;;;;;;5030250;28;20292;-80
2023/08/13 06:39:46;;;;;;;6.57;2.78;;;;;;;;;;5034033;28;20123;-80
2023/08/13 06:42:11;;;;;;;5.33;2.63;;;;;;;;;;5017376;28;20030;-80
2023/08/13 06:44:37;;;;;;;4.55;2.63;;;;;;;;;;5017936;28;20331;-80
2023/08/13 06:47:02;;;;;;;3.28;1.98;;;;;;;;;;5035430;28;20235;-80
2023/08/13 06:49:28;;;;;;;4.87;2.80;;;;;;;;;;5034095;28;20030;-80
2023/08/13 06:51:53;;;;;;;4.40;2.90;;;;;;;;;;5032843;28;20356;-81
2023/08/13 06:54:18;;;;;;;5.80;2.70;;;;;;;;;;5034992;28;20036;-80
2023/08/13 06:56:43;;;;;;;4.40;2.60;;;;;;;;;;5032082;28;20280;-79
2023/08/13 06:59:08;;;;;;;6.32;2.58;;;;;;;;;;5034839;28;20277;-80
2023/08/13 07:01:34;;;;;;;3.80;2.40;;;;;;;;;;5035407;28;20073;-80
2023/08/13 07:03:59;;;;;;;4.05;2.58;;;;;;;;;;5034192;28;20041;-80
2023/08/13 07:06:25;;;;;;;4.00;2.70;;;;;;;;;;5018003;28;20049;-80
2023/08/13 07:08:50;;;;;;;3.45;2.17;;;;;;;;;;5031320;28;20419;-80
2023/08/13 07:11:15;;;;;;;5.88;2.50;;;;;;;;;;5032110;28;20477;-80
2023/08/13 07:13:41;;;;;;;3.57;2.13;;;;;;;;;;5035129;28;20057;-79
2023/08/13 07:16:09;;;;;;;3.37;1.97;;;;;;;;;;5035035;28;20712;-80
2023/08/13 07:18:35;;;;;;;3.28;2.20;;;;;;;;;;5034866;28;20296;-80
2023/08/13 07:21:01;;;;;;;3.65;2.33;;;;;;;;;;5032082;28;20436;-80
2023/08/13 07:23:28;;;;;;;4.30;2.03;;;;;;;;;;5034791;28;20030;-81
2023/08/13 07:25:53;;;;;;;4.10;2.15;;;;;;;;;;5035691;28;20042;-80
2023/08/13 07:28:18;;;;;;;6.07;1.87;;;;;;;;;;5000992;28;20093;-80
2023/08/13 07:30:43;;;;;;;4.03;2.50;;;;;;;;;;5032647;28;20332;-80
2023/08/13 07:33:09;;;;;;;4.28;2.15;;;;;;;;;;5017747;28;20034;-81
2023/08/13 07:35:35;;;;;;;4.10;2.50;;;;;;;;;;5034904;28;20037;-80
2023/08/13 07:38:00;;;;;;;5.00;2.22;;;;;;;;;;5017013;28;20405;-80
2023/08/13 07:40:26;;;;;;;3.83;2.13;;;;;;;;;;5023070;28;20112;-80
2023/08/13 07:42:51;;;;;;;5.40;2.70;;;;;;;;;;5018000;28;20751;-81
2023/08/13 07:45:16;;;;;;;4.30;1.90;;;;;;;;;;5016759;28;20030;-79
2023/08/13 07:47:41;;;;;;;3.42;1.75;;;;;;;;;;5017224;28;20276;-80
2023/08/13 07:50:07;;;;;;;3.83;1.70;;;;;;;;;;5023790;28;20034;-80
2023/08/13 07:52:34;;;;;;;3.72;1.50;;;;;;;;;;5036270;28;20272;-81
2023/08/13 07:54:59;;;;;;;12.63;2.17;;;;;;;;;;5002619;28;20519;-81
2023/08/13 07:57:24;;;;;;;3.20;1.67;;;;;;;;;;5020825;28;20029;-80
2023/08/13 07:59:49;;;;;;;2.17;1.50;;;;;;;;;;5033499;28;20040;-80
2023/08/13 08:02:15;;;;;;;2.60;1.43;;;;;;;;;;5007384;28;20280;-80
2023/08/13 08:04:40;;;;;;;4.70;2.23;;;;;;;;;;5035131;28;20294;-80
2023/08/13 08:07:05;;;;;;;3.13;1.50;;;;;;;;;;5033335;28;20363;-81
2023/08/13 08:09:30;;;;;;;2.10;1.40;;;;;;;;;;5015696;28;20034;-80
2023/08/13 08:11:55;;;;;;;3.33;1.50;;;;;;;;;;5024110;28;20036;-81
2023/08/13 08:14:21;;;;;;;3.30;1.50;;;;;;;;;;5025654;28;20357;-81
2023/08/13 08:16:46;;;;;;;2.53;1.23;;;;;;;;;;5032800;28;20312;-80
2023/08/13 08:19:11;;;;;;;2.75;1.20;;;;;;;;;;5035169;28;20332;-81
2023/08/13 08:21:37;;;;;;;2.50;1.17;;;;;;;;;;5016033;28;20037;-81
2023/08/13 08:24:02;;;;;;;3.40;1.30;;;;;;;;;;5031752;28;20065;-80
2023/08/13 08:26:28;;;;;;;2.42;1.20;;;;;;;;;;5037104;28;20040;-81
2023/08/13 08:28:53;;;;;;;2.58;1.30;;;;;;;;;;5015492;28;20492;-80
2023/08/13 08:31:18;;;;;;;2.40;1.17;;;;;;;;;;5031024;28;20026;-80
2023/08/13 08:33:44;;;;;;;2.30;1.15;;;;;;;;;;5033049;28;20033;-81
2023/08/13 08:36:09;;;;;;;2.67;1.57;;;;;;;;;;5031037;28;20029;-81
2023/08/13 08:38:34;;;;;;;3.20;1.40;;;;;;;;;;5029818;28;20269;-80
2023/08/13 08:40:59;;;;;;;3.33;1.30;;;;;;;;;;5018722;28;20284;-81
2023/08/13 08:43:28;;;;;;;3.10;1.45;;;;;;;;;;5015513;28;20264;-81
2023/08/13 08:45:54;;;;;;;2.67;1.25;;;;;;;;;;5029488;28;20030;-81
2023/08/13 08:48:20;;;;;;;4.50;1.60;;;;;;;;;;5034290;28;20052;-80
2023/08/13 08:50:46;;;;;;;2.20;1.20;;;;;;;;;;5034023;28;20029;-81
2023/08/13 08:53:11;;;;;;;2.08;1.10;;;;;;;;;;5024073;28;20045;-80
2023/08/13 08:55:37;;;;;;;3.65;1.25;;;;;;;;;;5013205;28;20072;-81
2023/08/13 08:58:02;;;;;;;2.17;1.20;;;;;;;;;;5033719;28;20033;-80
2023/08/13 09:00:27;;;;;;;3.03;1.23;;;;;;;;;;5030233;28;20061;-80
2023/08/13 09:02:53;;;;;;;3.78;1.20;;;;;;;;;;5033878;28;20101;-81
2023/08/13 09:05:19;;;;;;;3.38;1.48;;;;;;;;;;5021924;28;20146;-81
2023/08/13 09:07:44;;;;;;;2.45;1.17;;;;;;;;;;5030764;28;20029;-81
2023/08/13 09:10:10;;;;;;;3.45;1.10;;;;;;;;;;5032421;28;20040;-81
2023/08/13 09:12:36;;;;;;;2.35;1.00;;;;;;;;;;5032548;28;20108;-80
2023/08/13 09:15:05;;;;;;;2.40;1.10;;;;;;;;;;5032471;28;20029;-80
2023/08/13 09:17:30;;;;;;;3.83;1.00;;;;;;;;;;5014284;28;20034;-81
2023/08/13 09:19:56;;;;;;;2.63;1.10;;;;;;;;;;5030675;28;20075;-80
2023/08/13 09:22:21;;;;;;;2.78;1.13;;;;;;;;;;5033880;28;20349;-80
2023/08/13 09:24:48;;;;;;;2.63;1.00;;;;;;;;;;5034696;28;20038;-80
2023/08/13 09:27:13;;;;;;;2.65;1.13;;;;;;;;;;5037589;28;20118;-80
2023/08/13 09:29:39;;;;;;;2.42;1.00;;;;;;;;;;5013212;28;20076;-81
2023/08/13 09:32:05;;;;;;;2.42;1.10;;;;;;;;;;5023775;28;20034;-80
2023/08/13 09:34:30;;;;;;;2.13;1.05;;;;;;;;;;5033080;28;20030;-80
2023/08/13 09:36:56;;;;;;;4.75;1.40;;;;;;;;;;5033673;28;20507;-80
2023/08/13 09:39:22;;;;;;;1.65;1.00;;;;;;;;;;5031532;28;20030;-80
2023/08/13 09:41:48;;;;;;;2.25;0.88;;;;;;;;;;5027525;28;20079;-80
2023/08/13 09:44:14;;;;;;;2.55;1.40;;;;;;;;;;5024881;28;20131;-81
2023/08/13 09:46:40;;;;;;;2.50;1.10;;;;;;;;;;5037453;28;20112;-81
2023/08/13 09:49:09;;;;;;;1.58;0.90;;;;;;;;;;5035500;28;20644;-81
2023/08/13 09:51:37;;;;;;;2.10;1.08;;;;;;;;;;5033897;28;20089;-80
2023/08/13 09:54:07;;;;;;;1.98;1.08;;;;;;;;;;5039615;28;20045;-80
2023/08/13 09:56:34;;;;;;;2.20;1.13;;;;;;;;;;5036624;28;20396;-80
2023/08/13 09:59:00;;;;;;;3.72;1.45;;;;;;;;;;5034697;28;20045;-79
2023/08/13 10:01:25;;;;;;;2.25;0.93;;;;;;;;;;5036040;28;20405;-81
2023/08/13 10:03:50;;;;;;;3.28;1.42;;;;;;;;;;5038298;28;20037;-81
2023/08/13 10:06:16;;;;;;;1.98;0.80;;;;;;;;;;5033542;28;20503;-81
2023/08/13 10:08:42;;;;;;;2.95;1.30;;;;;;;;;;5016086;28;20034;-80
2023/08/13 10:11:08;;;;;;;3.20;1.05;;;;;;;;;;5033219;28;20037;-81
2023/08/13 10:13:34;;;;;;;2.20;1.10;;;;;;;;;;5033206;28;20025;-81
2023/08/13 10:15:59;;;;;;;3.45;1.05;;;;;;;;;;5035487;28;20049;-81
2023/08/13 10:18:25;;;;;;;2.93;0.97;;;;;;;;;;5035897;28;20025;-80
2023/08/13 10:20:50;;;;;;;3.55;0.93;;;;;;;;;;5014548;28;20330;-81
2023/08/13 10:23:16;;;;;;;2.40;1.10;;;;;;;;;;5034504;28;20049;-81
2023/08/13 10:25:43;;;;;;;2.38;0.98;;;;;;;;;;5022248;28;20288;-81
2023/08/13 10:28:37;;;;;;;2.13;1.10;;;;;;;;;;5018335;28;20479;-80
2023/08/13 10:31:21;;;;;;;2.40;0.93;;;;;;;;;;5008628;28;20085;-81
2023/08/13 10:33:46;;;;;;;1.65;0.93;;;;;;;;;;5021764;28;20034;-81
2023/08/13 10:36:12;;;;;;;1.73;1.00;;;;;;;;;;5033344;28;20060;-81
2023/08/13 10:38:40;;;;;;;2.10;1.00;;;;;;;;;;5030535;28;20272;-81
2023/08/13 10:41:06;;;;;;;2.38;1.10;;;;;;;;;;5022421;28;20323;-81
2023/08/13 10:43:33;;;;;;;3.13;1.10;;;;;;;;;;5033871;28;20030;-81
2023/08/13 10:45:58;;;;;;;2.13;0.90;;;;;;;;;;5019869;28;20037;-81
2023/08/13 10:48:29;;;;;;;3.25;1.00;;;;;;;;;;5017387;28;20033;-81
2023/08/13 10:50:56;;;;;;;2.00;0.85;;;;;;;;;;5033208;28;20096;-80
2023/08/13 10:53:22;;;;;;;2.03;1.00;;;;;;;;;;5012560;28;20030;-81
2023/08/13 10:55:52;;;;;;;3.13;1.13;;;;;;;;;;5034229;28;20034;-81
2023/08/13 10:58:30;;;;;;;2.05;1.00;;;;;;;;;;5033718;28;20030;-81
2023/08/13 11:01:00;;;;;;;2.47;0.98;;;;;;;;;;5007193;28;20404;-81
2023/08/13 11:03:27;;;;;;;3.67;1.20;;;;;;;;;;5016140;28;20030;-81
2023/08/13 11:05:53;;;;;;;1.55;0.80;;;;;;;;;;5033164;28;20531;-81
2023/08/13 11:08:19;;;;;;;2.10;0.80;;;;;;;;;;5012468;28;20033;-81
2023/08/13 11:10:46;;;;;;;1.67;0.90;;;;;;;;;;5016112;28;20034;-81
2023/08/13 11:13:12;;;;;;;1.02;0.73;;;;;;;;;;5023263;28;20030;-81
2023/08/13 11:15:37;;;;;;;2.28;1.02;;;;;;;;;;5030191;28;20026;-80
2023/08/13 11:18:03;;;;;;;1.23;0.70;;;;;;;;;;5032397;28;20032;-81
2023/08/13 11:20:28;;;;;;;1.60;0.93;;;;;;;;;;5011604;28;20493;-81
2023/08/13 11:22:53;;;;;;;1.50;0.90;;;;;;;;;;5015393;28;20029;-81
2023/08/13 11:25:18;;;;;;;1.60;1.00;;;;;;;;;;5032248;28;20543;-81
2023/08/13 11:27:44;;;;;;;1.30;0.60;;;;;;;;;;5032367;28;20040;-80
2023/08/13 11:30:09;;;;;;;1.83;0.90;;;;;;;;;;5011934;28;20354;-80
2023/08/13 11:32:35;;;;;;;1.95;0.73;;;;;;;;;;5032180;28;20049;-81
2023/08/13 11:35:03;;;;;;;3.17;0.82;;;;;;;;;;5030548;28;20022;-81
2023/08/13 11:37:28;;;;;;;2.13;0.93;;;;;;;;;;5031892;28;20017;-81
2023/08/13 11:39:53;;;;;;;1.40;0.68;;;;;;;;;;5013806;28;20476;-81
2023/08/13 11:42:18;;;;;;;1.57;0.97;;;;;;;;;;5030571;28;20100;-81
2023/08/13 11:44:47;;;;;;;1.53;0.80;;;;;;;;;;5031211;28;20338;-80
2023/08/13 11:47:22;;;;;;;2.25;0.80;;;;;;;;;;5004913;28;20038;-81
2023/08/13 11:49:47;;;;;;;2.13;1.05;;;;;;;;;;5010182;28;20148;-81
2023/08/13 11:52:17;;;;;;;3.03;1.00;;;;;;;;;;5013571;28;20026;-81
2023/08/13 11:54:43;;;;;;;2.17;1.00;;;;;;;;;;5026965;28;20496;-81
2023/08/13 11:57:09;;;;;;;1.70;0.93;;;;;;;;;;5028500;28;20204;-81
2023/08/13 11:59:34;;;;;;;3.88;0.77;;;;;;;;;;5025014;28;20491;-81
2023/08/13 12:02:00;;;;;;;2.35;0.90;;;;;;;;;;5029082;28;20084;-80
2023/08/13 12:04:29;;;;;;;1.25;0.60;;;;;;;;;;5015515;28;20089;-81
2023/08/13 12:06:54;;;;;;;1.90;0.90;;;;;;;;;;5012391;28;20030;-81
2023/08/13 12:09:20;;;;;;;1.50;0.80;;;;;;;;;;5011213;28;20408;-81
2023/08/13 12:11:45;;;;;;;2.65;0.85;;;;;;;;;;5029777;28;20029;-81
2023/08/13 12:14:10;;;;;;;1.70;0.85;;;;;;;;;;5028502;28;20071;-81
2023/08/13 12:16:35;;;;;;;2.05;1.00;;;;;;;;;;5028919;28;20476;-81
2023/08/13 12:19:02;;;;;;;1.83;0.80;;;;;;;;;;5029284;28;20037;-81
2023/08/13 12:21:27;;;;;;;1.65;0.85;;;;;;;;;;5012838;28;20034;-81
2023/08/13 12:23:52;;;;;;;2.25;0.80;;;;;;;;;;5010566;28;20044;-81
2023/08/13 12:26:17;;;;;;;1.38;0.80;;;;;;;;;;5009788;28;20105;-81
2023/08/13 12:28:47;;;;;;;3.20;1.00;;;;;;;;;;5013052;28;20038;-81
2023/08/13 12:31:13;;;;;;;1.30;0.90;;;;;;;;;;5028954;28;20124;-80
2023/08/13 12:33:38;;;;;;;1.30;0.80;;;;;;;;;;5008987;28;20089;-81
2023/08/13 12:36:03;;;;;;;1.80;0.90;;;;;;;;;;5029896;28;20378;-81
2023/08/13 12:38:28;;;;;;;1.75;0.90;;;;;;;;;;5026941;28;20090;-80
2023/08/13 12:40:54;;;;;;;1.83;0.70;;;;;;;;;;5028647;28;20034;-81
2023/08/13 12:43:19;;;;;;;2.07;0.80;;;;;;;;;;5026553;28;20033;-80
2023/08/13 12:45:44;;;;;;;3.27;1.13;;;;;;;;;;5028186;28;20092;-81
2023/08/13 12:48:09;;;;;;;2.47;0.90;;;;;;;;;;5026084;28;20295;-81
2023/08/13 12:50:34;;;;;;;2.80;0.90;;;;;;;;;;5029194;28;20034;-81
2023/08/13 12:53:00;;;;;;;1.80;0.87;;;;;;;;;;5002455;28;20087;-81
2023/08/13 12:55:25;;;;;;;2.33;1.15;;;;;;;;;;5024831;28;20045;-81
2023/08/13 12:57:50;;;;;;;2.00;0.80;;;;;;;;;;5027763;28;20040;-81
2023/08/13 13:00:16;;;;;;;2.27;1.10;;;;;;;;;;4991158;28;20087;-81
2023/08/13 13:02:41;;;;;;;2.57;0.70;;;;;;;;;;5029008;28;20037;-80
2023/08/13 13:05:07;;;;;;;1.80;0.90;;;;;;;;;;4998768;28;20316;-81
2023/08/13 13:07:32;;;;;;;2.15;1.00;;;;;;;;;;5006619;28;20045;-80
2023/08/13 13:09:57;;;;;;;1.33;0.83;;;;;;;;;;5026617;28;20029;-80
2023/08/13 13:12:23;;;;;;;4.10;0.90;;;;;;;;;;5026469;28;20033;-80
2023/08/13 13:14:48;;;;;;;1.63;0.70;;;;;;;;;;5029741;28;20030;-81
2023/08/13 13:17:13;;;;;;;1.53;0.80;;;;;;;;;;5006751;28;20033;-81
2023/08/13 13:19:38;;;;;;;1.73;0.80;;;;;;;;;;5017378;28;20290;-81
2023/08/13 13:22:04;;;;;;;1.43;0.83;;;;;;;;;;5023855;28;20405;-81
2023/08/13 13:24:29;;;;;;;6.35;1.20;;;;;;;;;;5009418;28;20041;-81
2023/08/13 13:26:54;;;;;;;3.20;0.80;;;;;;;;;;5004579;28;20033;-81
2023/08/13 13:29:19;;;;;;;2.17;1.13;;;;;;;;;;5028532;28;20038;-80
2023/08/13 13:31:44;;;;;;;1.60;0.90;;;;;;;;;;5023214;28;20467;-81
2023/08/13 13:34:10;;;;;;;1.57;0.90;;;;;;;;;;5012171;28;20038;-80
2023/08/13 13:36:35;;;;;;;2.55;0.98;;;;;;;;;;5026189;28;20036;-81
2023/08/13 13:39:00;;;;;;;1.20;0.70;;;;;;;;;;5021964;28;20560;-81
2023/08/13 13:41:25;;;;;;;2.90;0.90;;;;;;;;;;5027436;28;20550;-81
2023/08/13 13:43:51;;;;;;;2.93;0.93;;;;;;;;;;5007656;28;20086;-81
2023/08/13 13:46:16;;;;;;;1.75;0.82;;;;;;;;;;5025415;28;20083;-81
2023/08/13 13:48:41;;;;;;;1.60;1.05;;;;;;;;;;5024747;28;20029;-80
2023/08/13 13:51:06;;;;;;;1.90;0.83;;;;;;;;;;5022925;28;20032;-81
2023/08/13 13:53:32;;;;;;;1.43;0.80;;;;;;;;;;5025494;28;20030;-80
2023/08/13 13:55:57;;;;;;;1.07;0.70;;;;;;;;;;5027121;28;20500;-81
2023/08/13 13:58:22;;;;;;;2.80;0.70;;;;;;;;;;5025390;28;20282;-81
2023/08/13 14:00:49;;;;;;;1.73;0.80;;;;;;;;;;5022049;28;20679;-81
2023/08/13 14:03:14;;;;;;;1.63;1.00;;;;;;;;;;5007321;28;20283;-80
2023/08/13 14:05:40;;;;;;;1.83;0.90;;;;;;;;;;5024649;28;20030;-80
2023/08/13 14:08:05;;;;;;;2.83;0.90;;;;;;;;;;5021798;28;20046;-81
2023/08/13 14:10:30;;;;;;;1.92;0.93;;;;;;;;;;5023154;28;20689;-80
2023/08/13 14:12:55;;;;;;;1.20;0.70;;;;;;;;;;5008388;28;20038;-81
2023/08/13 14:15:20;;;;;;;2.17;0.77;;;;;;;;;;5024495;28;20026;-81
2023/08/13 14:17:46;;;;;;;1.20;0.80;;;;;;;;;;5025861;28;20030;-81
2023/08/13 14:20:12;;;;;;;3.00;1.10;;;;;;;;;;5023572;28;20034;-80
2023/08/13 14:22:37;;;;;;;1.92;0.80;;;;;;;;;;5006530;28;20280;-81
2023/08/13 14:25:02;;;;;;;1.50;0.90;;;;;;;;;;5024396;28;20077;-81
2023/08/13 14:27:28;;;;;;;1.63;0.80;;;;;;;;;;5014515;28;20049;-81
2023/08/13 14:29:53;;;;;;;1.63;0.90;;;;;;;;;;5027058;28;20029;-81
2023/08/13 14:32:22;;;;;;;1.52;1.00;;;;;;;;;;5027477;28;20452;-81
2023/08/13 14:34:47;;;;;;;1.60;0.88;;;;;;;;;;5009195;28;20033;-81